Time;durP1;ratioP1;P1;durP2;ratioP2;P2;SDS_P1;SDS_P2;PMS_P1;PMS_P2;Temp;Humidity;BMP_temperature;BMP_pressure;BME280_temperature;BME280_humidity;BME280_pressure;Samples;Min_cycle;Max_cycle;Signal;HPM_P1;HPM_P2
2021/09/02 00:02:09;;;;;;;23.23;15.37;;;;;;;;;;5058766;28;20306;-78
2021/09/02 00:04:37;;;;;;;20.97;14.77;;;;;;;;;;5054794;28;20331;-79
2021/09/02 00:07:05;;;;;;;22.33;15.07;;;;;;;;;;5062549;28;20223;-79
2021/09/02 00:09:33;;;;;;;22.20;15.70;;;;;;;;;;5066185;28;20742;-79
2021/09/02 00:12:01;;;;;;;23.30;15.43;;;;;;;;;;5075016;28;20286;-79
2021/09/02 00:14:28;;;;;;;20.13;15.20;;;;;;;;;;5059339;28;20227;-79
2021/09/02 00:16:55;;;;;;;21.60;15.33;;;;;;;;;;5065485;28;20199;-79
2021/09/02 00:19:23;;;;;;;19.70;15.10;;;;;;;;;;5055142;28;20279;-79
2021/09/02 00:21:50;;;;;;;22.10;16.10;;;;;;;;;;5054613;28;20287;-79
2021/09/02 00:24:18;;;;;;;23.83;16.00;;;;;;;;;;5053743;28;20282;-79
2021/09/02 00:26:46;;;;;;;23.13;15.17;;;;;;;;;;5054264;28;20601;-79
2021/09/02 00:29:13;;;;;;;23.47;15.53;;;;;;;;;;5054184;28;20198;-79
2021/09/02 00:31:40;;;;;;;24.77;15.20;;;;;;;;;;5054458;28;20304;-79
2021/09/02 00:34:07;;;;;;;22.00;15.87;;;;;;;;;;5054026;28;20286;-79
2021/09/02 00:36:35;;;;;;;22.63;15.43;;;;;;;;;;5053271;28;20280;-79
2021/09/02 00:39:02;;;;;;;22.13;15.67;;;;;;;;;;5053526;28;20279;-79
2021/09/02 00:41:31;;;;;;;22.67;16.40;;;;;;;;;;5053702;28;20609;-79
2021/09/02 00:43:58;;;;;;;23.77;16.20;;;;;;;;;;5054667;28;20199;-79
2021/09/02 00:46:25;;;;;;;25.57;17.27;;;;;;;;;;5053302;28;20283;-79
2021/09/02 00:48:53;;;;;;;24.37;16.80;;;;;;;;;;5054936;28;20206;-78
2021/09/02 00:51:20;;;;;;;24.30;16.20;;;;;;;;;;5060713;28;20224;-79
2021/09/02 00:53:48;;;;;;;20.60;16.47;;;;;;;;;;5062356;28;20211;-79
2021/09/02 00:56:15;;;;;;;24.43;16.73;;;;;;;;;;5061932;28;20246;-79
2021/09/02 00:58:44;;;;;;;24.50;16.23;;;;;;;;;;5063752;28;20573;-79
2021/09/02 01:01:11;;;;;;;24.47;17.23;;;;;;;;;;5052816;28;20206;-79
2021/09/02 01:03:39;;;;;;;23.87;16.33;;;;;;;;;;5053488;28;20759;-79
2021/09/02 01:06:06;;;;;;;22.93;16.00;;;;;;;;;;5052345;28;20286;-78
2021/09/02 01:08:33;;;;;;;23.60;16.83;;;;;;;;;;5053015;28;20634;-79
2021/09/02 01:11:00;;;;;;;28.13;17.67;;;;;;;;;;5052550;28;20238;-79
2021/09/02 01:13:29;;;;;;;27.37;17.90;;;;;;;;;;5052768;28;20679;-79
2021/09/02 01:15:57;;;;;;;23.83;17.60;;;;;;;;;;5053230;28;20223;-79
2021/09/02 01:18:24;;;;;;;25.57;17.70;;;;;;;;;;5053209;28;20286;-79
2021/09/02 01:20:52;;;;;;;24.00;17.77;;;;;;;;;;5052774;28;20291;-79
2021/09/02 01:23:21;;;;;;;24.30;17.90;;;;;;;;;;5064170;28;20195;-79
2021/09/02 01:25:48;;;;;;;26.13;18.50;;;;;;;;;;5073122;28;20291;-79
2021/09/02 01:28:16;;;;;;;25.20;17.73;;;;;;;;;;5073575;28;20230;-79
2021/09/02 01:30:44;;;;;;;23.27;17.93;;;;;;;;;;5062783;28;20738;-79
2021/09/02 01:33:12;;;;;;;26.00;17.03;;;;;;;;;;5057613;28;20283;-79
2021/09/02 01:35:39;;;;;;;28.03;17.93;;;;;;;;;;5065956;28;20247;-79
2021/09/02 01:38:08;;;;;;;23.83;18.07;;;;;;;;;;5059590;28;20286;-79
2021/09/02 01:40:37;;;;;;;27.90;18.57;;;;;;;;;;5054820;28;20746;-80
2021/09/02 01:43:05;;;;;;;25.33;18.67;;;;;;;;;;5057864;28;20299;-79
2021/09/02 01:45:32;;;;;;;28.80;19.07;;;;;;;;;;5065532;28;20227;-79
2021/09/02 01:48:00;;;;;;;26.33;18.90;;;;;;;;;;5063264;28;20234;-79
2021/09/02 01:50:28;;;;;;;26.93;18.13;;;;;;;;;;5059539;28;20191;-79
2021/09/02 01:52:56;;;;;;;29.73;19.03;;;;;;;;;;5061711;28;20210;-79
2021/09/02 01:55:24;;;;;;;26.57;18.67;;;;;;;;;;5071715;28;20276;-79
2021/09/02 01:57:52;;;;;;;26.07;18.50;;;;;;;;;;5053035;28;20282;-79
2021/09/02 02:00:20;;;;;;;29.23;18.73;;;;;;;;;;5051344;28;20298;-79
2021/09/02 02:02:47;;;;;;;28.13;18.90;;;;;;;;;;5052504;28;20310;-78
2021/09/02 02:05:15;;;;;;;28.70;19.47;;;;;;;;;;5064715;28;20318;-78
2021/09/02 02:07:43;;;;;;;28.43;19.80;;;;;;;;;;5057118;28;20750;-79
2021/09/02 02:10:12;;;;;;;29.93;18.60;;;;;;;;;;5059141;28;20299;-79
2021/09/02 02:12:39;;;;;;;29.60;19.53;;;;;;;;;;5064571;28;20730;-79
2021/09/02 02:15:09;;;;;;;27.23;20.03;;;;;;;;;;5067207;28;20314;-78
2021/09/02 02:17:36;;;;;;;27.73;20.13;;;;;;;;;;5064974;28;20207;-79
2021/09/02 02:20:04;;;;;;;28.77;19.40;;;;;;;;;;5058067;28;20291;-78
2021/09/02 02:22:31;;;;;;;30.63;20.00;;;;;;;;;;5052182;28;20278;-79
2021/09/02 02:24:58;;;;;;;28.50;20.30;;;;;;;;;;5061376;28;20287;-78
2021/09/02 02:27:25;;;;;;;31.50;19.57;;;;;;;;;;5069168;28;20281;-79
2021/09/02 02:29:52;;;;;;;27.60;19.80;;;;;;;;;;5058014;28;20295;-79
2021/09/02 02:32:21;;;;;;;28.57;19.10;;;;;;;;;;5051537;28;20227;-79
2021/09/02 02:34:48;;;;;;;30.10;19.90;;;;;;;;;;5059474;28;20210;-78
2021/09/02 02:37:15;;;;;;;31.03;20.23;;;;;;;;;;5051941;28;20206;-79
2021/09/02 02:39:42;;;;;;;28.87;19.67;;;;;;;;;;5051799;28;20747;-78
2021/09/02 02:42:11;;;;;;;28.83;20.03;;;;;;;;;;5065412;28;20206;-79
2021/09/02 02:44:39;;;;;;;29.97;19.97;;;;;;;;;;5062623;28;20299;-79
2021/09/02 02:47:09;;;;;;;28.33;19.57;;;;;;;;;;5052029;28;20316;-78
2021/09/02 02:49:38;;;;;;;27.77;19.80;;;;;;;;;;5051770;28;20200;-79
2021/09/02 02:52:05;;;;;;;28.70;20.20;;;;;;;;;;5052195;28;20207;-79
2021/09/02 02:54:33;;;;;;;30.87;19.47;;;;;;;;;;5054248;28;20195;-79
2021/09/02 02:57:00;;;;;;;27.57;19.97;;;;;;;;;;5063544;28;20798;-79
2021/09/02 02:59:27;;;;;;;31.03;20.37;;;;;;;;;;5066972;28;20294;-79
2021/09/02 03:01:54;;;;;;;29.70;20.47;;;;;;;;;;5066297;28;20309;-79
2021/09/02 03:04:22;;;;;;;28.57;20.43;;;;;;;;;;5056868;28;20327;-79
2021/09/02 03:06:50;;;;;;;25.90;19.43;;;;;;;;;;5059280;28;20223;-78
2021/09/02 03:09:17;;;;;;;28.33;19.77;;;;;;;;;;5067314;28;20302;-78
2021/09/02 03:11:45;;;;;;;26.27;19.50;;;;;;;;;;5066846;28;20627;-78
2021/09/02 03:14:12;;;;;;;29.83;20.17;;;;;;;;;;5051356;28;20306;-78
2021/09/02 03:16:39;;;;;;;27.37;19.00;;;;;;;;;;5051067;28;20306;-78
2021/09/02 03:19:06;;;;;;;31.83;19.63;;;;;;;;;;5051754;28;20291;-78
2021/09/02 03:21:33;;;;;;;26.40;19.30;;;;;;;;;;5051346;28;20279;-78
2021/09/02 03:24:02;;;;;;;29.37;19.73;;;;;;;;;;5051566;28;20238;-78
2021/09/02 03:26:29;;;;;;;29.57;19.67;;;;;;;;;;5052027;28;20227;-79
2021/09/02 03:28:56;;;;;;;25.23;18.63;;;;;;;;;;5051424;28;20227;-78
2021/09/02 03:31:23;;;;;;;28.03;19.20;;;;;;;;;;5054532;28;20253;-78
2021/09/02 03:33:51;;;;;;;27.87;18.87;;;;;;;;;;5054509;28;20322;-79
2021/09/02 03:36:18;;;;;;;25.57;18.60;;;;;;;;;;5071139;28;20254;-78
2021/09/02 03:38:45;;;;;;;30.40;19.97;;;;;;;;;;5055925;28;20332;-78
2021/09/02 03:41:14;;;;;;;30.13;19.70;;;;;;;;;;5055724;28;20199;-78
2021/09/02 03:43:41;;;;;;;29.33;19.40;;;;;;;;;;5055555;28;20294;-79
2021/09/02 03:46:08;;;;;;;29.77;19.33;;;;;;;;;;5055617;28;20195;-78
2021/09/02 03:48:35;;;;;;;28.97;18.50;;;;;;;;;;5059523;28;20291;-78
2021/09/02 03:51:02;;;;;;;29.27;19.37;;;;;;;;;;5075628;28;20294;-78
2021/09/02 03:53:29;;;;;;;28.07;19.67;;;;;;;;;;5068172;28;20283;-78
2021/09/02 03:55:57;;;;;;;32.30;21.37;;;;;;;;;;5055521;28;20594;-79
2021/09/02 03:58:25;;;;;;;26.93;19.37;;;;;;;;;;5061546;28;20742;-79
2021/09/02 04:00:53;;;;;;;31.23;19.93;;;;;;;;;;5061711;28;20714;-79
2021/09/02 04:03:20;;;;;;;27.17;19.40;;;;;;;;;;5068803;28;20376;-78
2021/09/02 04:05:47;;;;;;;30.43;19.57;;;;;;;;;;5055195;28;20254;-78
2021/09/02 04:08:14;;;;;;;29.10;20.20;;;;;;;;;;5053263;28;20671;-78
2021/09/02 04:10:41;;;;;;;26.97;19.40;;;;;;;;;;5053870;28;20625;-78
2021/09/02 04:13:08;;;;;;;31.03;20.30;;;;;;;;;;5053872;28;20234;-78
2021/09/02 04:15:37;;;;;;;35.50;20.57;;;;;;;;;;5054241;28;20292;-79
2021/09/02 04:18:04;;;;;;;29.83;20.03;;;;;;;;;;5054643;28;20299;-78
2021/09/02 04:20:31;;;;;;;32.37;19.87;;;;;;;;;;5053549;28;20244;-78
2021/09/02 04:22:58;;;;;;;26.33;19.47;;;;;;;;;;5054894;28;20286;-78
2021/09/02 04:25:25;;;;;;;32.57;20.30;;;;;;;;;;5054547;28;20282;-78
2021/09/02 04:27:53;;;;;;;32.40;19.97;;;;;;;;;;5053904;28;20290;-79
2021/09/02 04:30:20;;;;;;;29.77;19.63;;;;;;;;;;5054858;28;20227;-78
2021/09/02 04:32:49;;;;;;;31.57;20.87;;;;;;;;;;5054999;28;20282;-78
2021/09/02 04:35:16;;;;;;;28.40;20.30;;;;;;;;;;5055949;28;20231;-78
2021/09/02 04:37:45;;;;;;;28.30;20.23;;;;;;;;;;5067539;28;20309;-78
2021/09/02 04:40:12;;;;;;;32.57;20.43;;;;;;;;;;5072296;28;20286;-78
2021/09/02 04:42:40;;;;;;;30.27;19.93;;;;;;;;;;5061655;28;20287;-78
2021/09/02 04:45:08;;;;;;;30.73;20.33;;;;;;;;;;5054516;28;20298;-78
2021/09/02 04:47:35;;;;;;;30.30;20.33;;;;;;;;;;5064712;28;20196;-78
2021/09/02 04:50:06;;;;;;;30.57;22.07;;;;;;;;;;5053937;28;20227;-78
2021/09/02 04:52:33;;;;;;;32.73;21.07;;;;;;;;;;5072907;28;20199;-78
2021/09/02 04:55:00;;;;;;;34.17;20.63;;;;;;;;;;5066918;28;20192;-78
2021/09/02 04:57:27;;;;;;;32.43;21.37;;;;;;;;;;5053786;28;20251;-78
2021/09/02 04:59:55;;;;;;;31.30;21.73;;;;;;;;;;5058208;28;20201;-78
2021/09/02 05:02:22;;;;;;;33.33;22.07;;;;;;;;;;5063777;28;20330;-78
2021/09/02 05:04:49;;;;;;;29.87;21.23;;;;;;;;;;5068107;28;20322;-78
2021/09/02 05:07:18;;;;;;;35.10;22.20;;;;;;;;;;5054245;28;20659;-78
2021/09/02 05:09:45;;;;;;;32.60;21.60;;;;;;;;;;5052821;28;20203;-78
2021/09/02 05:12:12;;;;;;;32.17;21.83;;;;;;;;;;5061294;28;20200;-78
2021/09/02 05:14:40;;;;;;;34.73;21.67;;;;;;;;;;5067100;28;20290;-78
2021/09/02 05:17:08;;;;;;;32.23;21.93;;;;;;;;;;5061215;28;20314;-79
2021/09/02 05:19:35;;;;;;;32.00;21.90;;;;;;;;;;5069063;28;20214;-78
2021/09/02 05:22:03;;;;;;;32.90;21.97;;;;;;;;;;5062101;28;20286;-78
2021/09/02 05:24:32;;;;;;;33.33;21.77;;;;;;;;;;5055811;28;20233;-79
2021/09/02 05:26:59;;;;;;;31.20;21.67;;;;;;;;;;5068951;28;20195;-78
2021/09/02 05:29:26;;;;;;;33.33;21.57;;;;;;;;;;5055660;28;20198;-78
2021/09/02 05:31:53;;;;;;;35.53;22.73;;;;;;;;;;5057387;28;20286;-78
2021/09/02 05:34:21;;;;;;;31.07;20.93;;;;;;;;;;5059452;28;20206;-78
2021/09/02 05:36:48;;;;;;;31.93;21.67;;;;;;;;;;5054679;28;20247;-79
2021/09/02 05:39:15;;;;;;;33.47;21.63;;;;;;;;;;5052960;28;20227;-78
2021/09/02 05:41:44;;;;;;;30.17;21.30;;;;;;;;;;5061357;28;20278;-79
2021/09/02 05:44:12;;;;;;;32.63;20.50;;;;;;;;;;5061400;28;20199;-77
2021/09/02 05:46:40;;;;;;;30.60;21.47;;;;;;;;;;5065175;28;20191;-78
2021/09/02 05:49:07;;;;;;;30.77;20.40;;;;;;;;;;5053438;28;20206;-78
2021/09/02 05:51:34;;;;;;;33.70;21.13;;;;;;;;;;5051796;28;20224;-78
2021/09/02 05:54:01;;;;;;;30.50;20.37;;;;;;;;;;5053913;28;20200;-78
2021/09/02 05:56:29;;;;;;;32.47;20.70;;;;;;;;;;5063026;28;20305;-79
2021/09/02 05:58:57;;;;;;;29.13;19.57;;;;;;;;;;5067498;28;20395;-78
2021/09/02 06:01:24;;;;;;;30.07;20.47;;;;;;;;;;5055575;28;20209;-79
2021/09/02 06:03:52;;;;;;;26.03;19.20;;;;;;;;;;5065634;28;20318;-78
2021/09/02 06:06:19;;;;;;;25.93;19.53;;;;;;;;;;5055489;28;20295;-79
2021/09/02 06:08:46;;;;;;;25.73;19.03;;;;;;;;;;5055047;28;20196;-78
2021/09/02 06:11:13;;;;;;;25.53;18.30;;;;;;;;;;5061961;28;20283;-79
2021/09/02 06:13:40;;;;;;;25.57;18.53;;;;;;;;;;5069230;28;20211;-79
2021/09/02 06:16:09;;;;;;;25.27;17.27;;;;;;;;;;5052892;28;20574;-78
2021/09/02 06:18:36;;;;;;;25.37;18.07;;;;;;;;;;5052635;28;20297;-79
2021/09/02 06:21:03;;;;;;;22.47;17.03;;;;;;;;;;5069306;28;20209;-79
2021/09/02 06:23:31;;;;;;;23.67;17.30;;;;;;;;;;5052495;28;20286;-79
2021/09/02 06:25:58;;;;;;;22.77;16.57;;;;;;;;;;5062087;28;20234;-79
2021/09/02 06:28:25;;;;;;;23.70;15.93;;;;;;;;;;5056281;28;20992;-79
2021/09/02 06:30:53;;;;;;;24.97;16.73;;;;;;;;;;5063000;28;20294;-79
2021/09/02 06:33:21;;;;;;;23.10;15.90;;;;;;;;;;5052257;28;20223;-79
2021/09/02 06:35:48;;;;;;;22.67;15.77;;;;;;;;;;5051879;28;20286;-79
2021/09/02 06:38:15;;;;;;;21.20;15.50;;;;;;;;;;5058505;28;20273;-79
2021/09/02 06:40:43;;;;;;;20.63;15.17;;;;;;;;;;5064388;28;20207;-80
2021/09/02 06:43:10;;;;;;;20.33;15.77;;;;;;;;;;5072139;28;20290;-79
2021/09/02 06:45:37;;;;;;;23.03;15.77;;;;;;;;;;5066745;28;20282;-78
2021/09/02 06:48:04;;;;;;;21.00;15.05;;;;;;;;;;5055275;28;20678;-79
2021/09/02 06:50:33;;;;;;;19.70;14.95;;;;;;;;;;5056220;28;20228;-79
2021/09/02 06:53:00;;;;;;;19.77;14.20;;;;;;;;;;5051063;28;20231;-79
2021/09/02 06:55:27;;;;;;;20.75;14.68;;;;;;;;;;5062400;28;20199;-79
2021/09/02 06:57:54;;;;;;;18.88;14.15;;;;;;;;;;5071324;28;20593;-79
2021/09/02 07:00:22;;;;;;;18.20;13.25;;;;;;;;;;5062523;28;20639;-78
2021/09/02 07:02:49;;;;;;;20.08;14.43;;;;;;;;;;5067327;28;20310;-79
2021/09/02 07:05:17;;;;;;;20.15;14.63;;;;;;;;;;5066334;28;20318;-79
2021/09/02 07:07:46;;;;;;;19.75;14.20;;;;;;;;;;5057312;28;20226;-78
2021/09/02 07:10:13;;;;;;;18.08;12.65;;;;;;;;;;5064664;28;20278;-78
2021/09/02 07:12:40;;;;;;;20.60;14.02;;;;;;;;;;5057243;28;20279;-79
2021/09/02 07:15:08;;;;;;;17.55;13.65;;;;;;;;;;5062067;28;20647;-78
2021/09/02 07:17:35;;;;;;;17.67;13.70;;;;;;;;;;5061964;28;20323;-78
2021/09/02 07:20:05;;;;;;;16.10;12.77;;;;;;;;;;5062483;28;20631;-78
2021/09/02 07:22:33;;;;;;;17.42;13.02;;;;;;;;;;5066855;28;20196;-78
2021/09/02 07:25:01;;;;;;;17.88;13.15;;;;;;;;;;5052589;28;20196;-79
2021/09/02 07:27:29;;;;;;;17.67;13.32;;;;;;;;;;5056181;28;20195;-79
2021/09/02 07:29:56;;;;;;;17.45;13.70;;;;;;;;;;5059451;28;20290;-79
2021/09/02 07:32:23;;;;;;;16.85;13.43;;;;;;;;;;5054859;28;20287;-78
2021/09/02 07:34:51;;;;;;;17.92;14.65;;;;;;;;;;5060939;28;20291;-78
2021/09/02 07:37:19;;;;;;;17.38;13.88;;;;;;;;;;5068057;28;20269;-78
2021/09/02 07:39:47;;;;;;;18.33;14.15;;;;;;;;;;5061999;28;20208;-78
2021/09/02 07:42:17;;;;;;;15.65;12.68;;;;;;;;;;5062756;28;20286;-78
2021/09/02 07:44:44;;;;;;;16.27;13.23;;;;;;;;;;5062817;28;20210;-78
2021/09/02 07:47:11;;;;;;;15.13;12.82;;;;;;;;;;5071688;28;20290;-78
2021/09/02 07:49:38;;;;;;;16.50;13.63;;;;;;;;;;5071335;28;20225;-78
2021/09/02 07:52:06;;;;;;;17.95;12.65;;;;;;;;;;5060033;28;20192;-79
2021/09/02 07:54:33;;;;;;;16.45;13.32;;;;;;;;;;5050800;28;20235;-79
2021/09/02 07:57:00;;;;;;;19.45;13.93;;;;;;;;;;5051489;28;20220;-79
2021/09/02 07:59:29;;;;;;;17.63;13.35;;;;;;;;;;5050603;28;20240;-78
2021/09/02 08:01:56;;;;;;;16.08;13.32;;;;;;;;;;5049747;28;20228;-79
2021/09/02 08:04:23;;;;;;;14.30;12.80;;;;;;;;;;5049976;28;20242;-78
2021/09/02 08:06:50;;;;;;;16.15;13.65;;;;;;;;;;5050605;28;20286;-79
2021/09/02 08:09:17;;;;;;;14.93;13.27;;;;;;;;;;5051258;28;20637;-79
2021/09/02 08:11:45;;;;;;;15.80;12.60;;;;;;;;;;5050614;28;20200;-79
2021/09/02 08:14:12;;;;;;;16.88;12.68;;;;;;;;;;5050654;28;20203;-79
2021/09/02 08:16:40;;;;;;;15.10;12.25;;;;;;;;;;5050929;28;20290;-79
2021/09/02 08:19:08;;;;;;;15.77;13.02;;;;;;;;;;5049750;28;20200;-79
2021/09/02 08:21:35;;;;;;;16.55;12.95;;;;;;;;;;5050875;28;20287;-78
2021/09/02 08:24:19;;;;;;;15.30;12.15;;;;;;;;;;5052051;28;20327;-79
2021/09/02 08:26:47;;;;;;;16.15;13.02;;;;;;;;;;5054849;28;20290;-79
2021/09/02 08:29:14;;;;;;;15.75;12.20;;;;;;;;;;5063122;28;20304;-78
2021/09/02 08:31:42;;;;;;;15.50;12.23;;;;;;;;;;5069743;28;20286;-79
2021/09/02 08:34:09;;;;;;;15.05;12.30;;;;;;;;;;5069559;28;20624;-79
2021/09/02 08:36:40;;;;;;;15.80;12.75;;;;;;;;;;5061809;28;20294;-79
2021/09/02 08:39:07;;;;;;;15.50;12.63;;;;;;;;;;5054047;28;20282;-78
2021/09/02 08:41:44;;;;;;;16.50;12.63;;;;;;;;;;5054129;28;20227;-78
2021/09/02 08:44:11;;;;;;;15.55;13.05;;;;;;;;;;5052943;28;20210;-79
2021/09/02 08:46:38;;;;;;;14.95;12.18;;;;;;;;;;5053386;28;20282;-79
2021/09/02 08:49:07;;;;;;;17.48;12.48;;;;;;;;;;5053487;28;20223;-78
2021/09/02 08:51:36;;;;;;;16.40;12.05;;;;;;;;;;5069395;28;20384;-79
2021/09/02 08:54:04;;;;;;;16.00;12.98;;;;;;;;;;5071281;28;20682;-79
2021/09/02 08:56:31;;;;;;;15.40;12.45;;;;;;;;;;5061213;28;20230;-78
2021/09/02 08:59:01;;;;;;;16.17;11.63;;;;;;;;;;5072833;28;20302;-79
2021/09/02 09:01:28;;;;;;;14.00;10.55;;;;;;;;;;5061633;28;20644;-78
2021/09/02 09:03:55;;;;;;;15.43;11.55;;;;;;;;;;5066505;28;20242;-79
2021/09/02 09:06:26;;;;;;;13.57;10.65;;;;;;;;;;5070684;28;20223;-79
2021/09/02 09:08:54;;;;;;;14.68;11.55;;;;;;;;;;5056255;28;20192;-79
2021/09/02 09:11:22;;;;;;;14.32;10.52;;;;;;;;;;5056225;28;20206;-80
2021/09/02 09:13:49;;;;;;;15.52;12.15;;;;;;;;;;5055502;28;20206;-79
2021/09/02 09:16:16;;;;;;;14.82;12.07;;;;;;;;;;5058712;28;20298;-79
2021/09/02 09:18:45;;;;;;;15.43;11.43;;;;;;;;;;5061322;28;20229;-79
2021/09/02 09:21:13;;;;;;;14.90;11.93;;;;;;;;;;5061692;28;20214;-84
2021/09/02 09:23:58;;;;;;;14.35;11.00;;;;;;;;;;5061332;28;20199;-84
2021/09/02 09:26:26;;;;;;;12.50;10.40;;;;;;;;;;5065332;28;20195;-84
2021/09/02 09:28:56;;;;;;;12.82;11.00;;;;;;;;;;5063315;28;20191;-84
2021/09/02 09:31:27;;;;;;;11.50;10.23;;;;;;;;;;5063033;28;20238;-85
2021/09/02 09:33:55;;;;;;;14.60;11.23;;;;;;;;;;5071666;28;20222;-85
2021/09/02 09:36:23;;;;;;;13.30;11.10;;;;;;;;;;5070903;28;20199;-84
2021/09/02 09:39:03;;;;;;;12.02;9.80;;;;;;;;;;5074512;28;20227;-84
2021/09/02 09:41:31;;;;;;;12.52;10.48;;;;;;;;;;5067550;28;20372;-84
2021/09/02 09:44:13;;;;;;;12.23;10.25;;;;;;;;;;5065287;28;20263;-84
2021/09/02 09:46:41;;;;;;;11.07;9.75;;;;;;;;;;5058410;28;20286;-84
2021/09/02 09:49:08;;;;;;;13.70;9.73;;;;;;;;;;5072950;28;20195;-85
2021/09/02 09:51:35;;;;;;;12.07;9.90;;;;;;;;;;5067524;28;20739;-84
2021/09/02 09:54:04;;;;;;;12.38;10.30;;;;;;;;;;5065724;28;20743;-84
2021/09/02 09:56:31;;;;;;;12.70;8.70;;;;;;;;;;5067011;28;20573;-84
2021/09/02 09:58:58;;;;;;;12.32;8.63;;;;;;;;;;5069952;28;20325;-85
2021/09/02 10:01:28;;;;;;;11.40;8.77;;;;;;;;;;5059639;28;20239;-84
2021/09/02 10:03:56;;;;;;;10.65;8.30;;;;;;;;;;5067528;28;20259;-85
2021/09/02 10:06:24;;;;;;;11.98;8.20;;;;;;;;;;5054542;28;20192;-85
2021/09/02 10:08:52;;;;;;;11.77;9.30;;;;;;;;;;5070720;28;20198;-85
2021/09/02 10:11:21;;;;;;;11.65;8.43;;;;;;;;;;5073942;28;20291;-83
2021/09/02 10:13:48;;;;;;;13.52;9.10;;;;;;;;;;5066981;28;20213;-85
2021/09/02 10:16:15;;;;;;;11.32;8.30;;;;;;;;;;5062432;28;20234;-84
2021/09/02 10:18:44;;;;;;;11.98;8.43;;;;;;;;;;5056559;28;20309;-84
2021/09/02 10:21:12;;;;;;;9.90;8.13;;;;;;;;;;5064675;28;20290;-85
2021/09/02 10:23:39;;;;;;;10.80;7.90;;;;;;;;;;5062046;28;20200;-85
2021/09/02 10:26:08;;;;;;;10.10;8.32;;;;;;;;;;5059554;28;20232;-85
2021/09/02 10:28:37;;;;;;;9.75;8.27;;;;;;;;;;5054909;28;20196;-85
2021/09/02 10:31:05;;;;;;;9.93;8.90;;;;;;;;;;5062066;28;20608;-84
2021/09/02 10:33:34;;;;;;;9.95;8.00;;;;;;;;;;5063230;28;20231;-85
2021/09/02 10:36:02;;;;;;;11.00;8.73;;;;;;;;;;5065665;28;20234;-85
2021/09/02 10:38:40;;;;;;;9.32;8.32;;;;;;;;;;5069029;28;20311;-85
2021/09/02 10:41:08;;;;;;;9.50;8.40;;;;;;;;;;5061914;28;20196;-84
2021/09/02 10:43:50;;;;;;;10.63;8.20;;;;;;;;;;5073912;28;20203;-84
2021/09/02 10:46:27;;;;;;;12.57;8.32;;;;;;;;;;5059127;28;20206;-85
2021/09/02 10:48:54;;;;;;;10.35;7.85;;;;;;;;;;5061635;28;20206;-85
2021/09/02 10:51:34;;;;;;;12.70;7.88;;;;;;;;;;5069319;28;20286;-84
2021/09/02 10:54:02;;;;;;;9.32;8.13;;;;;;;;;;5056088;28;20325;-84
2021/09/02 10:56:33;;;;;;;9.43;7.95;;;;;;;;;;5052847;28;20204;-84
2021/09/02 10:59:03;;;;;;;8.90;7.82;;;;;;;;;;5053852;28;20223;-85
2021/09/02 11:01:31;;;;;;;12.60;7.70;;;;;;;;;;5054746;28;20238;-84
2021/09/02 11:04:03;;;;;;;8.93;7.47;;;;;;;;;;5068451;28;20318;-85
2021/09/02 11:06:57;;;;;;;10.98;8.07;;;;;;;;;;5052062;28;20621;-84
2021/09/02 11:09:31;;;;;;;9.50;8.20;;;;;;;;;;5038982;28;20263;-85
2021/09/02 11:11:59;;;;;;;9.85;7.63;;;;;;;;;;5060704;28;20628;-85
2021/09/02 11:14:28;;;;;;;9.75;8.02;;;;;;;;;;5069683;28;20234;-85
2021/09/02 11:16:56;;;;;;;10.88;7.40;;;;;;;;;;5059867;28;20207;-82
2021/09/02 11:19:33;;;;;;;10.57;7.65;;;;;;;;;;5062543;28;20345;-82
2021/09/02 11:22:07;;;;;;;12.20;7.68;;;;;;;;;;5053513;28;20278;-82
2021/09/02 11:24:38;;;;;;;8.32;7.40;;;;;;;;;;5057939;28;20191;-82
2021/09/02 11:27:05;;;;;;;10.13;8.15;;;;;;;;;;5063222;28;20214;-82
2021/09/02 11:29:34;;;;;;;9.15;7.38;;;;;;;;;;5060216;28;20617;-82
2021/09/02 11:32:02;;;;;;;9.10;7.47;;;;;;;;;;5060304;28;20223;-82
2021/09/02 11:34:29;;;;;;;9.20;7.22;;;;;;;;;;5060442;28;20195;-82
2021/09/02 11:36:56;;;;;;;9.82;7.80;;;;;;;;;;5051027;28;20239;-82
2021/09/02 11:39:27;;;;;;;7.95;7.07;;;;;;;;;;5057169;28;20750;-82
2021/09/02 11:41:59;;;;;;;9.20;7.85;;;;;;;;;;5063307;28;20282;-82
2021/09/02 11:44:27;;;;;;;11.82;8.10;;;;;;;;;;5072304;28;20202;-82
2021/09/02 11:46:57;;;;;;;8.75;7.80;;;;;;;;;;5063579;28;20750;-82
2021/09/02 11:49:24;;;;;;;10.43;8.00;;;;;;;;;;5072445;28;20289;-81
2021/09/02 11:51:55;;;;;;;9.38;7.85;;;;;;;;;;5056499;28;20228;-82
2021/09/02 11:54:22;;;;;;;10.93;7.70;;;;;;;;;;5070028;28;20199;-81
2021/09/02 11:56:50;;;;;;;8.15;7.22;;;;;;;;;;5073847;28;20679;-82
2021/09/02 11:59:18;;;;;;;9.38;7.57;;;;;;;;;;5071797;28;20707;-82
2021/09/02 12:01:45;;;;;;;8.57;7.68;;;;;;;;;;5062626;28;20223;-80
2021/09/02 12:04:24;;;;;;;9.90;7.63;;;;;;;;;;5057140;28;20216;-82
2021/09/02 12:06:52;;;;;;;10.15;8.48;;;;;;;;;;5056521;28;20250;-81
2021/09/02 12:09:20;;;;;;;9.43;7.70;;;;;;;;;;5068818;28;20213;-82
2021/09/02 12:11:48;;;;;;;10.60;7.50;;;;;;;;;;5066368;28;20196;-82
2021/09/02 12:14:17;;;;;;;8.43;6.45;;;;;;;;;;5069045;28;20227;-82
2021/09/02 12:16:44;;;;;;;9.80;7.47;;;;;;;;;;5071092;28;20238;-82
2021/09/02 12:19:11;;;;;;;9.85;7.28;;;;;;;;;;5071117;28;20294;-82
2021/09/02 12:21:40;;;;;;;8.63;6.57;;;;;;;;;;5066773;28;20277;-82
2021/09/02 12:24:08;;;;;;;8.05;6.50;;;;;;;;;;5063350;28;20291;-82
2021/09/02 12:26:45;;;;;;;7.72;6.53;;;;;;;;;;5062654;28;20241;-80
2021/09/02 12:29:14;;;;;;;8.15;6.72;;;;;;;;;;5076831;28;20716;-82
2021/09/02 12:31:41;;;;;;;9.25;7.00;;;;;;;;;;5059844;28;20223;-82
2021/09/02 12:34:09;;;;;;;8.32;7.07;;;;;;;;;;5067109;28;20286;-82
2021/09/02 12:36:37;;;;;;;8.00;6.25;;;;;;;;;;5077501;28;20199;-82
2021/09/02 12:39:22;;;;;;;7.13;6.45;;;;;;;;;;5068213;28;20219;-82
2021/09/02 12:41:50;;;;;;;8.18;6.13;;;;;;;;;;5056859;28;20238;-82
2021/09/02 12:44:28;;;;;;;8.27;6.05;;;;;;;;;;5067393;28;20365;-82
2021/09/02 12:46:57;;;;;;;7.50;6.63;;;;;;;;;;5060745;28;20279;-83
2021/09/02 12:49:26;;;;;;;8.02;6.40;;;;;;;;;;5066848;28;20230;-82
2021/09/02 12:52:00;;;;;;;7.53;6.70;;;;;;;;;;5069975;28;20673;-82
2021/09/02 12:54:29;;;;;;;7.85;7.00;;;;;;;;;;5069992;28;20644;-82
2021/09/02 12:56:56;;;;;;;8.88;6.97;;;;;;;;;;5063791;28;20232;-82
2021/09/02 12:59:23;;;;;;;7.65;6.32;;;;;;;;;;5072443;28;20777;-83
2021/09/02 13:01:51;;;;;;;8.95;7.07;;;;;;;;;;5062233;28;20313;-82
2021/09/02 13:04:18;;;;;;;9.52;6.20;;;;;;;;;;5068363;28;20254;-83
2021/09/02 13:06:45;;;;;;;11.77;6.93;;;;;;;;;;5068534;28;20196;-83
2021/09/02 13:09:12;;;;;;;7.88;6.50;;;;;;;;;;5055855;28;20385;-83
2021/09/02 13:11:41;;;;;;;9.80;6.47;;;;;;;;;;5063640;28;20295;-83
2021/09/02 13:14:08;;;;;;;7.45;6.45;;;;;;;;;;5053332;28;20287;-84
2021/09/02 13:16:35;;;;;;;7.60;6.70;;;;;;;;;;5065326;28;20971;-83
2021/09/02 13:19:02;;;;;;;7.43;6.60;;;;;;;;;;5073297;28;20765;-83
2021/09/02 13:21:30;;;;;;;8.63;7.00;;;;;;;;;;5069827;28;20294;-83
2021/09/02 13:23:57;;;;;;;9.60;6.47;;;;;;;;;;5067445;28;20226;-83
2021/09/02 13:26:24;;;;;;;9.27;6.40;;;;;;;;;;5070508;28;20235;-83
2021/09/02 13:28:53;;;;;;;7.45;6.20;;;;;;;;;;5061369;28;20236;-83
2021/09/02 13:31:20;;;;;;;7.40;6.28;;;;;;;;;;5060879;28;20282;-83
2021/09/02 13:33:47;;;;;;;7.65;6.30;;;;;;;;;;5065832;28;20294;-83
2021/09/02 13:36:15;;;;;;;7.53;6.30;;;;;;;;;;5057424;28;20273;-83
2021/09/02 13:38:42;;;;;;;6.93;6.22;;;;;;;;;;5051934;28;20302;-83
2021/09/02 13:41:09;;;;;;;7.28;6.00;;;;;;;;;;5052713;28;20283;-83
2021/09/02 13:43:36;;;;;;;7.43;6.50;;;;;;;;;;5052464;28;20634;-83
2021/09/02 13:46:06;;;;;;;9.30;6.55;;;;;;;;;;5053012;28;20282;-83
2021/09/02 13:48:33;;;;;;;7.25;6.55;;;;;;;;;;5052810;28;20207;-83
2021/09/02 13:51:01;;;;;;;8.68;6.35;;;;;;;;;;5052768;28;20227;-83
2021/09/02 13:53:28;;;;;;;7.70;6.18;;;;;;;;;;5051463;28;20964;-83
2021/09/02 13:55:55;;;;;;;7.57;6.32;;;;;;;;;;5068471;28;20219;-83
2021/09/02 13:58:22;;;;;;;8.18;6.22;;;;;;;;;;5072735;28;20282;-83
2021/09/02 14:00:50;;;;;;;9.48;6.80;;;;;;;;;;5062413;28;20326;-83
2021/09/02 14:03:19;;;;;;;7.65;6.85;;;;;;;;;;5060564;28;20262;-83
2021/09/02 14:05:46;;;;;;;7.45;6.38;;;;;;;;;;5061847;28;20283;-83
2021/09/02 14:08:13;;;;;;;7.40;6.70;;;;;;;;;;5065715;28;20286;-83
2021/09/02 14:10:40;;;;;;;7.25;6.35;;;;;;;;;;5053503;28;20238;-82
2021/09/02 14:13:08;;;;;;;7.70;6.68;;;;;;;;;;5061466;28;20231;-83
2021/09/02 14:15:35;;;;;;;9.88;6.85;;;;;;;;;;5051152;28;20196;-83
2021/09/02 14:18:02;;;;;;;6.90;6.22;;;;;;;;;;5051313;28;20235;-83
2021/09/02 14:20:30;;;;;;;7.80;6.78;;;;;;;;;;5051887;28;20251;-83
2021/09/02 14:22:58;;;;;;;7.43;6.32;;;;;;;;;;5049694;28;20275;-83
2021/09/02 14:25:25;;;;;;;7.35;6.45;;;;;;;;;;5051993;28;20278;-83
2021/09/02 14:27:52;;;;;;;7.15;6.13;;;;;;;;;;5060476;28;20227;-82
2021/09/02 14:30:19;;;;;;;6.53;5.75;;;;;;;;;;5070743;28;20192;-83